Terminal Aerodrome Forecast
Issued by NWS Lake Charles, LA

Home | Current Version | Previous Version | Text Only | Print | Product List | Glossary On
Versions: 1 2 3 4 5 6 7 8 9 10 11 12 13 14
729
FTUS44 KLCH 271130
TAFLFT
TAF
KLFT 271130Z 2712/2812 18005KT P6SM SCT012 BKN025
     FM271700 20012G18KT P6SM VCTS SCT025CB BKN035
     FM280000 17005KT P6SM BKN015
     FM280300 VRB03KT 4SM BR BKN008=

USA.gov is the U.S. government's official web portal to all federal, state and local government web resources and services.